createdAt,value
2019-02-07T00:00:44.135Z,41.47
2019-02-07T00:10:49.620Z,36.30
2019-02-07T00:20:54.977Z,34.37
2019-02-07T00:31:00.193Z,41.33
2019-02-07T00:41:05.693Z,36.27
2019-02-07T00:51:11.028Z,38.40
2019-02-07T01:01:16.430Z,46.00
2019-02-07T01:11:21.786Z,47.67
2019-02-07T01:21:27.302Z,57.37
2019-02-07T01:31:32.618Z,57.77
2019-02-07T01:41:38.003Z,51.30
2019-02-07T01:51:43.319Z,54.80
2019-02-07T02:01:48.690Z,53.63
2019-02-07T02:11:55.537Z,51.10
2019-02-07T02:22:00.874Z,54.80
2019-02-07T02:32:06.241Z,54.63
2019-02-07T02:42:11.631Z,50.47
2019-02-07T02:52:16.951Z,60.87
2019-02-07T03:02:47.078Z,49.20
2019-02-07T03:13:11.269Z,48.43
2019-02-07T03:23:34.335Z,43.53
2019-02-07T03:34:01.657Z,47.07
2019-02-07T03:44:24.121Z,45.30
2019-02-07T03:55:06.368Z,42.43
2019-02-07T04:05:36.785Z,47.93
2019-02-07T04:15:55.429Z,44.00
2019-02-07T04:26:28.455Z,42.33
2019-02-07T04:36:43.577Z,46.73
2019-02-07T04:47:17.475Z,41.77
2019-02-07T04:57:30.675Z,38.87
2019-02-07T05:07:53.832Z,46.47
2019-02-07T05:18:27.289Z,40.03
2019-02-07T05:28:51.543Z,40.47
2019-02-07T05:39:18.753Z,41.43
2019-02-07T05:49:41.845Z,38.57
2019-02-07T06:00:06.813Z,35.67
2019-02-07T06:10:29.835Z,43.00
2019-02-07T06:21:00.112Z,34.67
2019-02-07T06:31:14.400Z,37.10
2019-02-07T06:41:41.348Z,31.83
2019-02-07T06:52:09.364Z,34.00
2019-02-07T07:02:32.172Z,31.33
2019-02-07T07:12:59.114Z,36.70
2019-02-07T07:23:31.076Z,27.10
2019-02-07T07:33:58.218Z,31.57
2019-02-07T07:44:17.658Z,31.40
2019-02-07T07:54:51.016Z,36.27
2019-02-07T08:05:13.907Z,33.90
2019-02-07T08:15:44.506Z,31.97
2019-02-07T08:26:08.876Z,28.67
2019-02-07T08:36:31.644Z,29.17
2019-02-07T08:46:59.051Z,26.77
2019-02-07T08:57:29.739Z,28.27
2019-02-07T09:07:52.948Z,26.50
2019-02-07T09:18:17.451Z,23.27
2019-02-07T09:28:40.316Z,25.63
2019-02-07T09:39:08.822Z,27.27
2019-02-07T09:49:30.930Z,26.33
2019-02-07T09:59:53.665Z,25.33
2019-02-07T10:10:26.923Z,23.40
2019-02-07T10:20:49.585Z,20.67
2019-02-07T10:31:13.442Z,20.10
2019-02-07T10:41:44.209Z,22.27
2019-02-07T10:52:14.793Z,21.60
2019-02-07T11:02:52.815Z,23.90
2019-02-07T11:13:24.664Z,21.07
2019-02-07T11:23:47.447Z,21.57
2019-02-07T11:34:16.550Z,19.10
2019-02-07T11:44:39.107Z,19.03
2019-02-07T11:55:18.730Z,26.70
2019-02-07T12:05:41.493Z,27.27
2019-02-07T12:16:04.615Z,25.97
2019-02-07T12:26:24.232Z,30.10
2019-02-07T12:36:49.299Z,33.40
2019-02-07T12:47:27.717Z,26.57
2019-02-07T12:57:50.739Z,30.67
2019-02-07T13:08:30.038Z,26.67
2019-02-07T13:19:02.005Z,24.07
2019-02-07T13:29:27.622Z,28.80
2019-02-07T13:39:51.939Z,30.23
2019-02-07T13:50:25.213Z,28.27
2019-02-07T14:01:07.623Z,28.07
2019-02-07T14:11:49.709Z,30.80
2019-02-07T14:22:12.446Z,29.53
2019-02-07T14:32:43.528Z,31.07
2019-02-07T14:43:02.014Z,27.03
2019-02-07T14:53:07.320Z,26.60
2019-02-07T15:03:12.716Z,24.37
2019-02-07T15:13:18.411Z,21.67
2019-02-07T15:23:23.801Z,23.90
2019-02-07T15:33:29.385Z,25.60
2019-02-07T15:43:35.275Z,22.90
2019-02-07T15:53:41.011Z,26.40
2019-02-07T16:03:58.107Z,25.00
2019-02-07T16:14:03.985Z,21.83
2019-02-07T16:24:09.523Z,24.80
2019-02-07T16:34:15.011Z,32.43
2019-02-07T16:44:20.653Z,34.33
2019-02-07T16:54:26.571Z,35.43
2019-02-07T17:04:31.899Z,28.07
2019-02-07T17:14:37.470Z,31.77
2019-02-07T17:24:42.831Z,25.87
2019-02-07T17:34:48.275Z,29.17
2019-02-07T17:44:53.695Z,29.17
2019-02-07T17:54:59.031Z,27.77
2019-02-07T18:05:06.181Z,34.77
2019-02-07T18:15:11.667Z,30.63
2019-02-07T18:25:17.421Z,34.33
2019-02-07T18:35:23.089Z,28.50
2019-02-07T18:45:28.384Z,30.57
2019-02-07T18:55:33.801Z,37.63
2019-02-07T19:05:39.685Z,33.27
2019-02-07T19:15:47.819Z,33.27
2019-02-07T19:25:53.203Z,36.37
2019-02-07T19:35:58.627Z,31.80
2019-02-07T19:46:03.832Z,44.60
2019-02-07T19:56:09.152Z,50.27
2019-02-07T20:06:15.500Z,39.30
2019-02-07T20:16:21.828Z,32.53
2019-02-07T20:26:27.078Z,35.00
2019-02-07T20:36:32.461Z,34.93
2019-02-07T20:46:37.732Z,32.03
2019-02-07T20:56:43.266Z,36.63
2019-02-07T21:06:49.376Z,36.90
2019-02-07T21:16:55.019Z,37.97
2019-02-07T21:27:00.582Z,38.17
2019-02-07T21:37:06.200Z,43.00
2019-02-07T21:47:11.657Z,46.40
2019-02-07T21:57:17.236Z,42.77
2019-02-07T22:07:22.528Z,47.90
2019-02-07T22:17:28.185Z,42.90
2019-02-07T22:27:33.875Z,48.47
2019-02-07T22:37:39.291Z,47.73
2019-02-07T22:47:44.769Z,47.77
2019-02-07T22:57:50.153Z,48.63
2019-02-07T23:07:55.513Z,48.57
2019-02-07T23:18:00.836Z,48.30
2019-02-07T23:28:06.938Z,49.83
2019-02-07T23:38:12.315Z,45.77
2019-02-07T23:48:17.867Z,46.63
2019-02-07T23:58:23.330Z,48.60
